Gaz Venture — 3FLQ4 — position and weather

sailwx.info

Track history (hours):
 
Tides and Currents Weather Stations Pressure Air Temp Water Temp Dewpoint Dewpoint Depression Visibility Wind Speed Wind Dir Waves Ship Positions

Gaz Venture

Last reported at 2017-Mar-25 19:31 UTC. Time now 2017-Mar-25 19:47 UTC.
Position N 35°55' E 014°45'.

Length 120 m; draft 5.5 m.

Type: Tanker. MMSI: 356141000.

Date/timePositionNaut miles runAvg speedWind from/ knotsBaromVisibWave heightAir tempDewpointWater temp
2017-Mar-25 19:31N 35°55' E 014°45'8 8.0
2017-Mar-25 18:33N 35°57' E 014°36'3 3.4
2017-Mar-25 17:33N 35°57' E 014°31'5 5.3
2017-Mar-25 16:31N 35°59' E 014°25'0 0.0
2017-Mar-25 15:33N 35°59' E 014°25'0 0.0
2017-Mar-25 14:33N 35°59' E 014°25'0 0.0
2017-Mar-25 13:33N 35°59' E 014°25'0 0.0
2017-Mar-25 12:33N 35°59' E 014°25'0 0.0
2017-Mar-25 11:33N 35°59' E 014°25'0 0.0
2017-Mar-25 10:33N 35°59' E 014°25'0 0.0
2017-Mar-25 09:33N 35°59' E 014°25'1 1.4
2017-Mar-25 08:33N 35°59' E 014°27'7 7.0
2017-Mar-25 07:33N 35°57' E 014°35'1 1.3
2017-Mar-25 06:33N 35°57' E 014°37'1 1.3
2017-Mar-25 05:33N 35°57' E 014°38'2 1.8
2017-Mar-25 04:33N 35°57' E 014°40'1010.4
2017-Mar-25 03:33N 35°53' E 014°53'1212.4
2017-Mar-25 02:33N 35°45' E 015°04'1514.1
2017-Mar-25 01:31N 35°41' E 015°21'1914.2
2017-Mar-25 00:12N 35°34' E 015°43'1214.4
2017-Mar-24 23:22N 35°28' E 015°56'  
Track history (hours):
 
Tides and Currents Weather Stations Pressure Air Temp Water Temp Dewpoint Dewpoint Depression Visibility Wind Speed Wind Dir Waves Ship Positions

Gaz Venture

Last reported at 2017-Mar-25 19:31 UTC. Time now 2017-Mar-25 19:47 UTC.
Position N 35°55' E 014°45'.

Length 120 m; draft 5.5 m.

Type: Tanker. MMSI: 356141000.

Date/timePositionNaut miles runAvg speedWind from/ knotsBaromVisibWave heightAir tempDewpointWater temp
2017-Mar-25 19:31N 35°55' E 014°45'8 8.0
2017-Mar-25 18:33N 35°57' E 014°36'3 3.4
2017-Mar-25 17:33N 35°57' E 014°31'5 5.3
2017-Mar-25 16:31N 35°59' E 014°25'0 0.0
2017-Mar-25 15:33N 35°59' E 014°25'0 0.0
2017-Mar-25 14:33N 35°59' E 014°25'0 0.0
2017-Mar-25 13:33N 35°59' E 014°25'0 0.0
2017-Mar-25 12:33N 35°59' E 014°25'0 0.0
2017-Mar-25 11:33N 35°59' E 014°25'0 0.0
2017-Mar-25 10:33N 35°59' E 014°25'0 0.0
2017-Mar-25 09:33N 35°59' E 014°25'1 1.4
2017-Mar-25 08:33N 35°59' E 014°27'7 7.0
2017-Mar-25 07:33N 35°57' E 014°35'1 1.3
2017-Mar-25 06:33N 35°57' E 014°37'1 1.3
2017-Mar-25 05:33N 35°57' E 014°38'2 1.8
2017-Mar-25 04:33N 35°57' E 014°40'1010.4
2017-Mar-25 03:33N 35°53' E 014°53'1212.4
2017-Mar-25 02:33N 35°45' E 015°04'1514.1
2017-Mar-25 01:31N 35°41' E 015°21'1914.2
2017-Mar-25 00:12N 35°34' E 015°43'1214.4
2017-Mar-24 23:22N 35°28' E 015°56'  

Dump ship's entire track history